x

East Bahamas - 335 Nm East Of San Salvador Is, Bahamas (41046) Wave Buoy

6:50pm - Sat 27th Dec 2014 All times are UTC.

  • Sig Wave height 7.5ft
  • Swell Direction
  • Peak Period 16s
  • Average Period 9s
  • Wind
    16mph, 20mph gusts
  • Sea Temp 78°f
  • Air Temp 77°f
  • Sea Pressure 1019.4mb

More Historic Weather Station data

Upgrade to MSW Pro to gain access to the past 30 days of data for over 8000 Wavebouys and Weather Stations around the globe.

Join Pro

Comparision Forecast

View Surf forecast
   
Sat 12/27 6:50pm 7.5ft 16s 9s 16 20 mph 1019.4mb 78f 77f
5:50pm 8ft 16s 11s 16 20 mph 1019.7mb 78f 77f
4:50pm 7ft 16s 10s 9 11 mph 1020.6mb 79f 75f
3:50pm 6ft 16s 9s 7 9 mph 1021.6mb 79f 75f
2:50pm 5.5ft 16s 9s 13 18 mph 1022.3mb 79f 74f
1:50pm 6ft 16s 8s 9 11 mph 1022.1mb 79f 73f
12:50pm 5ft 11s 8s 13 16 mph 1020.9mb 80f 75f
11:50am 5.5ft 17s 8s 7 11 mph 1020.2mb 79f 77f
10:50am 5ft 11s 8s 4 7 mph 1019.7mb 79f 77f
9:50am 6ft 12s 8s 4 7 mph 1019.2mb 79f 76f
8:50am 5ft 11s 8s 7 11 mph 1019.3mb 79f 76f
7:50am 5ft 12s 8s 11 13 mph 1019.3mb 79f 76f
6:50am 5ft 13s 7s 9 11 mph 1019.5mb 79f 76f
5:50am 5ft 13s 7s 9 13 mph 1019.8mb 79f 77f
4:50am 5ft 13s 7s 11 16 mph 1020mb 79f 77f
3:50am 4.5ft 13s 7s 13 16 mph 1020.3mb 79f 77f
2:50am 4.5ft 13s 7s 13 16 mph 1020.7mb 79f 77f
1:50am 4.5ft 13s 7s 13 18 mph 1020.8mb 79f 77f
12:50am 4.5ft 14s 7s 13 16 mph 1020.6mb 79f 77f
Fri 12/26 11:50pm 4.5ft 14s 7s 13 16 mph 1020.4mb 80f 77f
10:50pm 4.5ft 14s 7s 11 13 mph 1020mb 80f 77f
9:50pm 4.5ft 11s 6s 9 13 mph 1019.5mb 80f 77f
8:50pm 4ft 10s 6s 11 16 mph 1019.1mb 80f 78f
7:50pm 4ft 11s 6s 11 16 mph 1019mb 80f 78f
6:50pm 4ft 11s 6s 9 11 mph 1019.2mb 80f 77f
5:50pm 3.5ft 9s 6s 9 13 mph 1019.4mb 80f 77f
4:50pm 4ft 11s 6s 11 13 mph 1020.1mb 80f 77f
3:50pm 4ft 8s 6s 11 13 mph 1021.1mb 80f 77f
2:50pm 4.5ft 11s 6s 11 13 mph 1021.6mb 80f 77f
1:50pm 4.5ft 9s 6s 11 13 mph 1021.7mb 80f 77f
12:50pm 4.5ft 11s 6s 11 13 mph 1021.2mb 79f 77f
11:50am 4.5ft 9s 6s 13 16 mph 1020.7mb 80f 77f
10:50am 4.5ft 9s 6s 13 18 mph 1020.2mb 80f 77f
9:50am 4ft 11s 6s 13 16 mph 1019.8mb 80f 77f
8:50am 4ft 9s 6s 13 18 mph 1019.6mb 80f 77f
7:50am 4ft 8s 6s 13 16 mph 1019.7mb 80f 77f
6:50am 4.5ft 8s 6s 11 13 mph 1019.9mb 80f 77f
5:50am 4ft 8s 6s 11 13 mph 1020.3mb 80f 77f
4:50am 4ft 9s 6s 11 16 mph 1020.9mb 80f 77f
3:50am 3.5ft 8s 6s 11 16 mph 1021.4mb 80f 77f
2:50am 4ft 9s 6s 11 16 mph 1021.9mb 80f 77f
1:50am 4ft 9s 6s 11 16 mph 1021.7mb 80f 77f
12:50am 3.5ft 8s 6s 11 13 mph 1021.4mb 80f 77f
Thu 12/25 11:50pm 3.5ft 8s 6s 13 16 mph 1021mb 80f 77f
10:50pm 4ft 8s 6s 11 13 mph 1020.8mb 80f 77f
9:50pm 4ft 8s 6s 11 13 mph 1020.2mb 80f 77f
8:50pm 4ft 9s 6s 11 13 mph 1019.8mb 80f 78f
7:50pm 4ft 9s 6s 11 13 mph 1019.9mb 80f 78f
6:50pm 4.5ft 8s 6s 9 11 mph 1019.7mb 80f 78f
5:50pm 4ft 9s 6s 11 13 mph 1020.3mb 80f 78f
4:50pm 4ft 9s 6s 11 13 mph 1021.2mb 80f 78f
3:50pm 4ft 8s 6s 11 16 mph 1022mb 80f 78f
2:50pm 4.5ft 8s 6s 11 13 mph 1022.7mb 80f 78f
1:50pm 4.5ft 8s 6s 13 16 mph 1023mb 80f 78f
12:50pm 4ft 8s 6s 13 16 mph 1021.8mb 80f 78f
11:50am 4ft 8s 6s 13 16 mph 1021mb 80f 77f
10:50am 4.5ft 9s 6s 13 16 mph 1020.3mb 80f 77f
9:50am 4.5ft 9s 6s 13 16 mph 1019.6mb 80f 77f
8:50am 4ft 9s 6s 13 16 mph 1019.3mb 80f 77f
7:50am 4ft 9s 6s 13 16 mph 1019.4mb 80f 77f
6:50am 4ft 9s 6s 11 16 mph 1019.9mb 80f 78f
5:50am 4.5ft 8s 6s 13 16 mph 1020.2mb 80f 78f
4:50am 4ft 9s 6s 11 16 mph 1020.4mb 80f 78f
3:50am 4ft 9s 6s 11 13 mph 1020.7mb 80f 78f
2:50am 4ft 9s 6s 13 16 mph 1020.9mb 80f 78f
1:50am 3.5ft 9s 6s 11 16 mph 1020.9mb 80f 78f
12:50am 4ft 7s 6s 11 13 mph 1020.4mb 80f 78f
Wed 12/24 11:50pm 4ft 6s 6s 13 16 mph 1020mb 80f 78f
10:50pm 4.5ft 6s 6s 13 16 mph 1019.4mb 80f 78f
9:50pm 4.5ft 7s 6s 11 13 mph 1018.8mb 80f 78f
8:50pm 4.5ft 7s 6s 11 13 mph 1018.8mb 80f 78f
7:50pm 4.5ft 6s 6s 9 11 mph 1018.1mb 80f 79f
6:50pm 4.5ft 7s 6s 9
mph
1018mb 80f 79f
5:50pm 4.5ft 7s 6s 11 13 mph 1018mb 80f 79f
4:50pm 4.5ft 7s 6s 11 13 mph 1018.8mb 80f 79f
3:50pm 4.5ft 7s 5s 13 16 mph 1019.6mb 80f 79f
2:50pm 4.5ft 7s 5s 13 18 mph 1020mb 80f 79f
1:50pm 4.5ft 7s 5s 13 16 mph 1020.1mb 80f 79f
12:50pm 4.5ft 7s 6s 13 18 mph 1019.5mb 80f 79f
11:50am 4.5ft 9s 6s 16 18 mph 1018.9mb 80f 78f
10:50am 4.5ft 9s 6s 16 18 mph 1018.3mb 80f 78f
9:50am 4.5ft 9s 5s 13 16 mph 1018.2mb 80f 78f
8:50am 4.5ft 7s 5s 16 18 mph 1017.7mb 80f 78f
7:50am 4.5ft 7s 5s 16 20 mph 1017.5mb 80f 78f
6:50am 5ft 7s 6s 18 20 mph 1017.9mb 80f 78f
5:50am 4.5ft 8s 5s 18 20 mph 1018.6mb 80f 78f
4:50am 4.5ft 5s 5s 16 20 mph 1019.1mb 80f 78f
3:50am 4.5ft 7s 5s 18 22 mph 1019mb 80f 79f
2:50am 4.5ft 7s 5s 18 22 mph 1019mb 80f 79f
1:50am 4.5ft 6s 5s 18 22 mph 1018.8mb 80f 79f
12:50am 4.5ft 7s 5s 18 20 mph 1018.4mb 80f 79f
Tue 12/23 11:50pm 4.5ft 7s 5s 18 20 mph 1018mb 80f 79f
10:50pm 4.5ft 6s 5s 18 20 mph 1017.5mb 80f 79f
9:50pm 5ft 6s 5s 13 16 mph 1017.2mb 80f 79f
8:50pm 5ft 7s 6s 16 18 mph 1016.9mb 80f 79f